sensor_id;sensor_type;location;lat;lon;timestamp;P1;durP1;ratioP1;P2;durP2;ratioP2
23743;SDS011;12052;53.478;10.182;2024-03-17T00:00:13;12.10;;;1.63;;
23743;SDS011;12052;53.478;10.182;2024-03-17T00:02:40;18.70;;;2.10;;
23743;SDS011;12052;53.478;10.182;2024-03-17T00:05:06;19.35;;;2.03;;
23743;SDS011;12052;53.478;10.182;2024-03-17T00:07:32;12.00;;;2.55;;
23743;SDS011;12052;53.478;10.182;2024-03-17T00:09:58;12.32;;;1.77;;
23743;SDS011;12052;53.478;10.182;2024-03-17T00:12:24;10.38;;;1.42;;
23743;SDS011;12052;53.478;10.182;2024-03-17T00:14:49;7.88;;;1.65;;
23743;SDS011;12052;53.478;10.182;2024-03-17T00:17:15;14.88;;;1.50;;
23743;SDS011;12052;53.478;10.182;2024-03-17T00:19:40;19.15;;;1.75;;
23743;SDS011;12052;53.478;10.182;2024-03-17T00:22:06;11.57;;;2.05;;
23743;SDS011;12052;53.478;10.182;2024-03-17T00:24:34;6.22;;;1.50;;
23743;SDS011;12052;53.478;10.182;2024-03-17T00:27:03;15.30;;;2.17;;
23743;SDS011;12052;53.478;10.182;2024-03-17T00:29:28;11.23;;;1.98;;
23743;SDS011;12052;53.478;10.182;2024-03-17T00:31:54;16.50;;;2.45;;
23743;SDS011;12052;53.478;10.182;2024-03-17T00:34:20;7.20;;;1.27;;
23743;SDS011;12052;53.478;10.182;2024-03-17T00:36:46;11.45;;;2.28;;
23743;SDS011;12052;53.478;10.182;2024-03-17T00:39:11;14.75;;;2.90;;
23743;SDS011;12052;53.478;10.182;2024-03-17T00:41:37;7.78;;;1.63;;
23743;SDS011;12052;53.478;10.182;2024-03-17T00:44:03;8.18;;;2.00;;
23743;SDS011;12052;53.478;10.182;2024-03-17T00:46:29;7.18;;;1.25;;
23743;SDS011;12052;53.478;10.182;2024-03-17T00:48:55;3.78;;;1.17;;
23743;SDS011;12052;53.478;10.182;2024-03-17T00:51:21;13.05;;;1.40;;
23743;SDS011;12052;53.478;10.182;2024-03-17T00:53:47;7.78;;;1.27;;
23743;SDS011;12052;53.478;10.182;2024-03-17T00:56:12;8.65;;;1.50;;
23743;SDS011;12052;53.478;10.182;2024-03-17T00:58:38;13.98;;;2.08;;
23743;SDS011;12052;53.478;10.182;2024-03-17T01:01:03;8.20;;;1.65;;
23743;SDS011;12052;53.478;10.182;2024-03-17T01:03:29;4.88;;;1.27;;
23743;SDS011;12052;53.478;10.182;2024-03-17T01:05:54;12.43;;;1.95;;
23743;SDS011;12052;53.478;10.182;2024-03-17T01:08:20;8.10;;;1.75;;
23743;SDS011;12052;53.478;10.182;2024-03-17T01:10:46;10.93;;;2.42;;
23743;SDS011;12052;53.478;10.182;2024-03-17T01:13:14;14.45;;;1.42;;
23743;SDS011;12052;53.478;10.182;2024-03-17T01:15:41;12.60;;;1.95;;
23743;SDS011;12052;53.478;10.182;2024-03-17T01:18:07;3.70;;;0.98;;
23743;SDS011;12052;53.478;10.182;2024-03-17T01:20:34;14.63;;;2.00;;
23743;SDS011;12052;53.478;10.182;2024-03-17T01:23:02;6.18;;;1.35;;
23743;SDS011;12052;53.478;10.182;2024-03-17T01:25:28;8.30;;;2.15;;
23743;SDS011;12052;53.478;10.182;2024-03-17T01:27:55;2.53;;;1.10;;
23743;SDS011;12052;53.478;10.182;2024-03-17T01:30:21;8.45;;;1.38;;
23743;SDS011;12052;53.478;10.182;2024-03-17T01:32:47;10.90;;;1.67;;
23743;SDS011;12052;53.478;10.182;2024-03-17T01:35:13;5.90;;;1.25;;
23743;SDS011;12052;53.478;10.182;2024-03-17T01:37:39;6.68;;;1.83;;
23743;SDS011;12052;53.478;10.182;2024-03-17T01:40:05;9.93;;;1.92;;
23743;SDS011;12052;53.478;10.182;2024-03-17T01:42:35;6.18;;;1.25;;
23743;SDS011;12052;53.478;10.182;2024-03-17T01:45:01;11.27;;;1.80;;
23743;SDS011;12052;53.478;10.182;2024-03-17T01:47:54;10.37;;;1.47;;
23743;SDS011;12052;53.478;10.182;2024-03-17T01:50:22;18.08;;;2.45;;
23743;SDS011;12052;53.478;10.182;2024-03-17T01:52:50;8.50;;;2.22;;
23743;SDS011;12052;53.478;10.182;2024-03-17T01:55:18;9.13;;;2.03;;
23743;SDS011;12052;53.478;10.182;2024-03-17T01:57:45;13.57;;;2.08;;
23743;SDS011;12052;53.478;10.182;2024-03-17T02:00:11;14.32;;;2.53;;
23743;SDS011;12052;53.478;10.182;2024-03-17T02:02:37;14.18;;;2.33;;
23743;SDS011;12052;53.478;10.182;2024-03-17T02:05:03;13.05;;;1.90;;
23743;SDS011;12052;53.478;10.182;2024-03-17T02:07:29;8.27;;;2.17;;
23743;SDS011;12052;53.478;10.182;2024-03-17T02:09:56;8.65;;;1.95;;
23743;SDS011;12052;53.478;10.182;2024-03-17T02:12:22;14.32;;;2.15;;
23743;SDS011;12052;53.478;10.182;2024-03-17T02:14:48;10.98;;;1.90;;
23743;SDS011;12052;53.478;10.182;2024-03-17T02:17:13;9.70;;;1.55;;
23743;SDS011;12052;53.478;10.182;2024-03-17T02:19:39;11.05;;;2.08;;
23743;SDS011;12052;53.478;10.182;2024-03-17T02:22:08;6.43;;;1.70;;
23743;SDS011;12052;53.478;10.182;2024-03-17T02:24:38;10.15;;;1.70;;
23743;SDS011;12052;53.478;10.182;2024-03-17T02:27:04;9.95;;;1.77;;
23743;SDS011;12052;53.478;10.182;2024-03-17T02:29:29;14.10;;;2.17;;
23743;SDS011;12052;53.478;10.182;2024-03-17T02:31:55;7.38;;;1.73;;
23743;SDS011;12052;53.478;10.182;2024-03-17T02:34:20;9.98;;;2.03;;
23743;SDS011;12052;53.478;10.182;2024-03-17T02:36:46;10.30;;;1.80;;
23743;SDS011;12052;53.478;10.182;2024-03-17T02:39:12;7.18;;;2.10;;
23743;SDS011;12052;53.478;10.182;2024-03-17T02:41:56;13.18;;;2.40;;
23743;SDS011;12052;53.478;10.182;2024-03-17T02:44:21;9.85;;;2.17;;
23743;SDS011;12052;53.478;10.182;2024-03-17T02:46:47;9.30;;;2.40;;
23743;SDS011;12052;53.478;10.182;2024-03-17T02:49:13;14.90;;;2.70;;
23743;SDS011;12052;53.478;10.182;2024-03-17T02:51:39;17.35;;;1.80;;
23743;SDS011;12052;53.478;10.182;2024-03-17T02:54:04;12.45;;;2.58;;
23743;SDS011;12052;53.478;10.182;2024-03-17T02:56:30;5.57;;;1.52;;
23743;SDS011;12052;53.478;10.182;2024-03-17T02:58:56;12.75;;;2.08;;
23743;SDS011;12052;53.478;10.182;2024-03-17T03:01:22;6.35;;;1.52;;
23743;SDS011;12052;53.478;10.182;2024-03-17T03:03:48;8.55;;;2.33;;
23743;SDS011;12052;53.478;10.182;2024-03-17T03:06:16;8.77;;;2.67;;
23743;SDS011;12052;53.478;10.182;2024-03-17T03:08:44;10.80;;;2.17;;
23743;SDS011;12052;53.478;10.182;2024-03-17T03:11:14;12.20;;;2.60;;
23743;SDS011;12052;53.478;10.182;2024-03-17T03:13:41;13.68;;;2.38;;
23743;SDS011;12052;53.478;10.182;2024-03-17T03:16:11;6.55;;;1.70;;
23743;SDS011;12052;53.478;10.182;2024-03-17T03:18:41;11.70;;;2.25;;
23743;SDS011;12052;53.478;10.182;2024-03-17T03:21:09;14.88;;;2.15;;
23743;SDS011;12052;53.478;10.182;2024-03-17T03:23:35;7.07;;;2.75;;
23743;SDS011;12052;53.478;10.182;2024-03-17T03:26:02;11.38;;;2.22;;
23743;SDS011;12052;53.478;10.182;2024-03-17T03:28:30;6.90;;;1.88;;
23743;SDS011;12052;53.478;10.182;2024-03-17T03:30:58;11.60;;;2.72;;
23743;SDS011;12052;53.478;10.182;2024-03-17T03:33:24;11.07;;;2.85;;
23743;SDS011;12052;53.478;10.182;2024-03-17T03:35:50;14.88;;;1.80;;
23743;SDS011;12052;53.478;10.182;2024-03-17T03:38:16;14.70;;;2.90;;
23743;SDS011;12052;53.478;10.182;2024-03-17T03:40:42;7.28;;;2.15;;
23743;SDS011;12052;53.478;10.182;2024-03-17T03:43:08;9.60;;;2.50;;
23743;SDS011;12052;53.478;10.182;2024-03-17T03:45:38;7.18;;;1.75;;
23743;SDS011;12052;53.478;10.182;2024-03-17T03:48:05;6.57;;;1.73;;
23743;SDS011;12052;53.478;10.182;2024-03-17T03:50:31;5.63;;;1.98;;
23743;SDS011;12052;53.478;10.182;2024-03-17T03:52:58;6.40;;;1.52;;
23743;SDS011;12052;53.478;10.182;2024-03-17T03:55:24;10.77;;;1.95;;
23743;SDS011;12052;53.478;10.182;2024-03-17T03:57:49;9.77;;;2.13;;
23743;SDS011;12052;53.478;10.182;2024-03-17T04:00:17;12.20;;;2.03;;
23743;SDS011;12052;53.478;10.182;2024-03-17T04:02:46;8.60;;;2.22;;
23743;SDS011;12052;53.478;10.182;2024-03-17T04:05:17;10.85;;;1.50;;
23743;SDS011;12052;53.478;10.182;2024-03-17T04:07:43;7.95;;;1.45;;
23743;SDS011;12052;53.478;10.182;2024-03-17T04:10:11;9.43;;;1.55;;
23743;SDS011;12052;53.478;10.182;2024-03-17T04:12:37;4.75;;;1.10;;
23743;SDS011;12052;53.478;10.182;2024-03-17T04:15:03;7.40;;;1.58;;
23743;SDS011;12052;53.478;10.182;2024-03-17T04:17:31;5.45;;;1.45;;
23743;SDS011;12052;53.478;10.182;2024-03-17T04:19:57;10.63;;;1.67;;
23743;SDS011;12052;53.478;10.182;2024-03-17T04:22:23;7.97;;;1.35;;
23743;SDS011;12052;53.478;10.182;2024-03-17T04:24:49;8.00;;;1.75;;
23743;SDS011;12052;53.478;10.182;2024-03-17T04:27:18;7.55;;;1.33;;
23743;SDS011;12052;53.478;10.182;2024-03-17T04:29:48;9.27;;;1.70;;
23743;SDS011;12052;53.478;10.182;2024-03-17T04:32:14;4.05;;;1.35;;
23743;SDS011;12052;53.478;10.182;2024-03-17T04:34:40;6.57;;;1.08;;
23743;SDS011;12052;53.478;10.182;2024-03-17T04:37:05;5.15;;;1.10;;
23743;SDS011;12052;53.478;10.182;2024-03-17T04:39:31;5.70;;;1.73;;
23743;SDS011;12052;53.478;10.182;2024-03-17T04:41:57;14.27;;;2.13;;
23743;SDS011;12052;53.478;10.182;2024-03-17T04:44:22;13.90;;;1.92;;
23743;SDS011;12052;53.478;10.182;2024-03-17T04:46:48;8.32;;;1.88;;
23743;SDS011;12052;53.478;10.182;2024-03-17T04:49:14;10.50;;;1.77;;
23743;SDS011;12052;53.478;10.182;2024-03-17T04:51:39;9.18;;;1.58;;
23743;SDS011;12052;53.478;10.182;2024-03-17T04:54:05;4.13;;;1.30;;
23743;SDS011;12052;53.478;10.182;2024-03-17T04:56:33;26.23;;;2.08;;
23743;SDS011;12052;53.478;10.182;2024-03-17T04:58:59;8.65;;;2.38;;
23743;SDS011;12052;53.478;10.182;2024-03-17T05:01:24;6.28;;;1.83;;
23743;SDS011;12052;53.478;10.182;2024-03-17T05:03:53;5.47;;;1.40;;
23743;SDS011;12052;53.478;10.182;2024-03-17T05:06:19;10.45;;;2.17;;
23743;SDS011;12052;53.478;10.182;2024-03-17T05:08:44;10.10;;;2.20;;
23743;SDS011;12052;53.478;10.182;2024-03-17T05:11:10;4.78;;;1.55;;
23743;SDS011;12052;53.478;10.182;2024-03-17T05:13:36;13.68;;;2.63;;
23743;SDS011;12052;53.478;10.182;2024-03-17T05:16:05;13.55;;;2.17;;
23743;SDS011;12052;53.478;10.182;2024-03-17T05:18:31;4.88;;;1.58;;
23743;SDS011;12052;53.478;10.182;2024-03-17T05:21:00;12.07;;;2.58;;
23743;SDS011;12052;53.478;10.182;2024-03-17T05:23:27;14.00;;;2.05;;
23743;SDS011;12052;53.478;10.182;2024-03-17T05:25:53;7.15;;;1.90;;
23743;SDS011;12052;53.478;10.182;2024-03-17T05:28:19;14.77;;;3.35;;
23743;SDS011;12052;53.478;10.182;2024-03-17T05:30:45;4.88;;;2.03;;
23743;SDS011;12052;53.478;10.182;2024-03-17T05:33:11;10.23;;;1.60;;
23743;SDS011;12052;53.478;10.182;2024-03-17T05:35:36;27.98;;;3.38;;
23743;SDS011;12052;53.478;10.182;2024-03-17T05:38:03;10.32;;;2.40;;
23743;SDS011;12052;53.478;10.182;2024-03-17T05:40:28;9.52;;;1.80;;
23743;SDS011;12052;53.478;10.182;2024-03-17T05:42:55;18.92;;;2.80;;
23743;SDS011;12052;53.478;10.182;2024-03-17T05:45:21;9.70;;;2.28;;
23743;SDS011;12052;53.478;10.182;2024-03-17T05:47:49;7.28;;;2.00;;
23743;SDS011;12052;53.478;10.182;2024-03-17T05:50:15;7.70;;;2.25;;
23743;SDS011;12052;53.478;10.182;2024-03-17T05:52:41;10.95;;;2.70;;
23743;SDS011;12052;53.478;10.182;2024-03-17T05:55:07;9.20;;;1.67;;
23743;SDS011;12052;53.478;10.182;2024-03-17T05:57:32;6.30;;;2.05;;
23743;SDS011;12052;53.478;10.182;2024-03-17T05:59:58;16.58;;;2.90;;
23743;SDS011;12052;53.478;10.182;2024-03-17T06:02:24;7.20;;;2.22;;
23743;SDS011;12052;53.478;10.182;2024-03-17T06:04:49;8.85;;;1.92;;
23743;SDS011;12052;53.478;10.182;2024-03-17T06:07:15;9.02;;;2.60;;
23743;SDS011;12052;53.478;10.182;2024-03-17T06:09:40;6.88;;;2.20;;
23743;SDS011;12052;53.478;10.182;2024-03-17T06:12:06;13.38;;;1.95;;
23743;SDS011;12052;53.478;10.182;2024-03-17T06:14:31;6.50;;;2.58;;
23743;SDS011;12052;53.478;10.182;2024-03-17T06:16:59;12.85;;;2.88;;
23743;SDS011;12052;53.478;10.182;2024-03-17T06:19:24;7.80;;;1.67;;
23743;SDS011;12052;53.478;10.182;2024-03-17T06:21:50;10.43;;;2.17;;
23743;SDS011;12052;53.478;10.182;2024-03-17T06:24:16;5.45;;;2.92;;
23743;SDS011;12052;53.478;10.182;2024-03-17T06:26:42;7.30;;;1.77;;
23743;SDS011;12052;53.478;10.182;2024-03-17T06:29:07;10.10;;;2.58;;
23743;SDS011;12052;53.478;10.182;2024-03-17T06:31:33;9.82;;;2.25;;
23743;SDS011;12052;53.478;10.182;2024-03-17T06:33:58;4.53;;;2.00;;
23743;SDS011;12052;53.478;10.182;2024-03-17T06:36:24;13.50;;;2.38;;
23743;SDS011;12052;53.478;10.182;2024-03-17T06:38:50;10.25;;;2.30;;
23743;SDS011;12052;53.478;10.182;2024-03-17T06:41:16;5.57;;;1.98;;
23743;SDS011;12052;53.478;10.182;2024-03-17T06:43:42;11.25;;;3.00;;
23743;SDS011;12052;53.478;10.182;2024-03-17T06:46:08;7.65;;;2.47;;
23743;SDS011;12052;53.478;10.182;2024-03-17T06:48:34;13.93;;;2.97;;
23743;SDS011;12052;53.478;10.182;2024-03-17T06:51:00;9.32;;;3.38;;
23743;SDS011;12052;53.478;10.182;2024-03-17T06:53:26;21.40;;;3.00;;
23743;SDS011;12052;53.478;10.182;2024-03-17T06:55:52;9.48;;;2.90;;
23743;SDS011;12052;53.478;10.182;2024-03-17T06:58:19;13.13;;;3.67;;
23743;SDS011;12052;53.478;10.182;2024-03-17T07:00:54;10.93;;;2.70;;
23743;SDS011;12052;53.478;10.182;2024-03-17T07:03:28;9.48;;;3.10;;
23743;SDS011;12052;53.478;10.182;2024-03-17T07:05:56;16.17;;;2.78;;
23743;SDS011;12052;53.478;10.182;2024-03-17T07:08:22;18.45;;;2.92;;
23743;SDS011;12052;53.478;10.182;2024-03-17T07:13:48;12.18;;;2.72;;
23743;SDS011;12052;53.478;10.182;2024-03-17T07:16:16;10.63;;;2.78;;
23743;SDS011;12052;53.478;10.182;2024-03-17T07:18:43;6.80;;;2.80;;
23743;SDS011;12052;53.478;10.182;2024-03-17T07:21:09;5.55;;;2.45;;
23743;SDS011;12052;53.478;10.182;2024-03-17T07:23:35;11.23;;;2.45;;
23743;SDS011;12052;53.478;10.182;2024-03-17T07:26:01;9.27;;;3.17;;
23743;SDS011;12052;53.478;10.182;2024-03-17T07:28:29;9.15;;;2.80;;
23743;SDS011;12052;53.478;10.182;2024-03-17T07:30:56;11.25;;;2.80;;
23743;SDS011;12052;53.478;10.182;2024-03-17T07:33:23;9.88;;;3.28;;
23743;SDS011;12052;53.478;10.182;2024-03-17T07:38:16;9.45;;;2.10;;
23743;SDS011;12052;53.478;10.182;2024-03-17T07:40:42;11.30;;;3.33;;
23743;SDS011;12052;53.478;10.182;2024-03-17T07:43:08;7.63;;;2.67;;
23743;SDS011;12052;53.478;10.182;2024-03-17T07:45:34;5.88;;;2.10;;
23743;SDS011;12052;53.478;10.182;2024-03-17T07:48:00;8.57;;;2.47;;
23743;SDS011;12052;53.478;10.182;2024-03-17T07:50:25;10.68;;;2.28;;
23743;SDS011;12052;53.478;10.182;2024-03-17T07:52:52;9.30;;;1.85;;
23743;SDS011;12052;53.478;10.182;2024-03-17T07:55:17;14.70;;;2.30;;
23743;SDS011;12052;53.478;10.182;2024-03-17T07:57:43;12.80;;;1.70;;
23743;SDS011;12052;53.478;10.182;2024-03-17T08:00:09;5.38;;;1.50;;
23743;SDS011;12052;53.478;10.182;2024-03-17T08:02:46;12.88;;;2.22;;
23743;SDS011;12052;53.478;10.182;2024-03-17T08:05:12;14.85;;;1.70;;
23743;SDS011;12052;53.478;10.182;2024-03-17T08:07:38;7.00;;;1.38;;
23743;SDS011;12052;53.478;10.182;2024-03-17T08:10:05;10.35;;;1.60;;
23743;SDS011;12052;53.478;10.182;2024-03-17T08:12:31;11.38;;;1.48;;
23743;SDS011;12052;53.478;10.182;2024-03-17T08:14:56;7.25;;;1.70;;
23743;SDS011;12052;53.478;10.182;2024-03-17T08:17:22;14.98;;;1.85;;
23743;SDS011;12052;53.478;10.182;2024-03-17T08:19:47;3.40;;;1.42;;
23743;SDS011;12052;53.478;10.182;2024-03-17T08:22:13;5.97;;;1.15;;
23743;SDS011;12052;53.478;10.182;2024-03-17T08:24:39;7.85;;;1.48;;
23743;SDS011;12052;53.478;10.182;2024-03-17T08:27:05;7.47;;;1.70;;
23743;SDS011;12052;53.478;10.182;2024-03-17T08:29:31;10.70;;;1.40;;
23743;SDS011;12052;53.478;10.182;2024-03-17T08:31:58;6.82;;;1.58;;
23743;SDS011;12052;53.478;10.182;2024-03-17T08:34:24;7.13;;;1.30;;
23743;SDS011;12052;53.478;10.182;2024-03-17T08:36:50;9.02;;;1.95;;
23743;SDS011;12052;53.478;10.182;2024-03-17T08:39:16;5.68;;;1.42;;
23743;SDS011;12052;53.478;10.182;2024-03-17T08:41:41;4.82;;;1.17;;
23743;SDS011;12052;53.478;10.182;2024-03-17T08:44:09;4.57;;;1.02;;
23743;SDS011;12052;53.478;10.182;2024-03-17T08:46:35;15.95;;;2.05;;
23743;SDS011;12052;53.478;10.182;2024-03-17T08:49:00;4.13;;;1.00;;
23743;SDS011;12052;53.478;10.182;2024-03-17T08:51:26;7.13;;;1.10;;
23743;SDS011;12052;53.478;10.182;2024-03-17T08:53:52;6.32;;;0.85;;
23743;SDS011;12052;53.478;10.182;2024-03-17T08:56:18;12.65;;;1.25;;
23743;SDS011;12052;53.478;10.182;2024-03-17T08:58:45;6.60;;;1.10;;
23743;SDS011;12052;53.478;10.182;2024-03-17T09:01:11;7.50;;;1.30;;
23743;SDS011;12052;53.478;10.182;2024-03-17T09:03:39;8.57;;;1.08;;
23743;SDS011;12052;53.478;10.182;2024-03-17T09:06:13;6.75;;;1.17;;
23743;SDS011;12052;53.478;10.182;2024-03-17T09:08:44;9.23;;;0.73;;
23743;SDS011;12052;53.478;10.182;2024-03-17T09:11:13;9.32;;;0.90;;
23743;SDS011;12052;53.478;10.182;2024-03-17T09:13:39;7.07;;;1.23;;
23743;SDS011;12052;53.478;10.182;2024-03-17T09:16:04;6.07;;;0.93;;
23743;SDS011;12052;53.478;10.182;2024-03-17T09:18:31;6.85;;;0.82;;
23743;SDS011;12052;53.478;10.182;2024-03-17T09:21:02;5.28;;;1.33;;
23743;SDS011;12052;53.478;10.182;2024-03-17T09:23:30;4.45;;;1.08;;
23743;SDS011;12052;53.478;10.182;2024-03-17T09:26:00;2.83;;;1.23;;
23743;SDS011;12052;53.478;10.182;2024-03-17T09:28:41;9.77;;;1.58;;
23743;SDS011;12052;53.478;10.182;2024-03-17T09:31:07;4.38;;;0.70;;
23743;SDS011;12052;53.478;10.182;2024-03-17T09:33:34;8.25;;;1.20;;
23743;SDS011;12052;53.478;10.182;2024-03-17T09:36:02;11.85;;;1.20;;
23743;SDS011;12052;53.478;10.182;2024-03-17T09:38:28;9.10;;;0.90;;
23743;SDS011;12052;53.478;10.182;2024-03-17T09:40:54;10.82;;;1.27;;
23743;SDS011;12052;53.478;10.182;2024-03-17T09:43:23;5.40;;;0.75;;
23743;SDS011;12052;53.478;10.182;2024-03-17T09:45:50;12.90;;;1.80;;
23743;SDS011;12052;53.478;10.182;2024-03-17T09:48:22;4.22;;;0.77;;
23743;SDS011;12052;53.478;10.182;2024-03-17T09:50:58;5.55;;;0.88;;
23743;SDS011;12052;53.478;10.182;2024-03-17T09:53:26;9.20;;;1.10;;
23743;SDS011;12052;53.478;10.182;2024-03-17T09:55:52;4.63;;;1.02;;
23743;SDS011;12052;53.478;10.182;2024-03-17T09:58:22;5.88;;;1.00;;
23743;SDS011;12052;53.478;10.182;2024-03-17T10:00:48;6.45;;;1.05;;
23743;SDS011;12052;53.478;10.182;2024-03-17T10:06:08;3.80;;;0.73;;
23743;SDS011;12052;53.478;10.182;2024-03-17T10:11:06;2.80;;;1.00;;
23743;SDS011;12052;53.478;10.182;2024-03-17T10:13:31;7.85;;;1.08;;
23743;SDS011;12052;53.478;10.182;2024-03-17T10:15:57;7.40;;;1.00;;
23743;SDS011;12052;53.478;10.182;2024-03-17T10:18:22;4.95;;;0.90;;
23743;SDS011;12052;53.478;10.182;2024-03-17T10:20:48;3.42;;;0.88;;
23743;SDS011;12052;53.478;10.182;2024-03-17T10:23:20;2.25;;;0.77;;
23743;SDS011;12052;53.478;10.182;2024-03-17T10:25:45;3.53;;;0.98;;
23743;SDS011;12052;53.478;10.182;2024-03-17T10:28:11;5.45;;;0.95;;
23743;SDS011;12052;53.478;10.182;2024-03-17T10:30:38;5.35;;;1.17;;
23743;SDS011;12052;53.478;10.182;2024-03-17T10:33:06;6.22;;;1.23;;
23743;SDS011;12052;53.478;10.182;2024-03-17T10:35:35;8.95;;;0.90;;
23743;SDS011;12052;53.478;10.182;2024-03-17T10:38:06;5.47;;;1.23;;
23743;SDS011;12052;53.478;10.182;2024-03-17T10:40:33;4.68;;;1.08;;
23743;SDS011;12052;53.478;10.182;2024-03-17T10:43:01;4.28;;;1.00;;
23743;SDS011;12052;53.478;10.182;2024-03-17T10:45:29;10.35;;;1.13;;
23743;SDS011;12052;53.478;10.182;2024-03-17T10:47:58;6.68;;;1.05;;
23743;SDS011;12052;53.478;10.182;2024-03-17T10:50:25;10.10;;;1.50;;
23743;SDS011;12052;53.478;10.182;2024-03-17T10:52:55;6.90;;;1.48;;
23743;SDS011;12052;53.478;10.182;2024-03-17T10:55:27;7.72;;;1.13;;
23743;SDS011;12052;53.478;10.182;2024-03-17T10:57:57;9.20;;;0.77;;
23743;SDS011;12052;53.478;10.182;2024-03-17T11:00:26;8.70;;;1.00;;
23743;SDS011;12052;53.478;10.182;2024-03-17T11:02:54;7.55;;;1.30;;
23743;SDS011;12052;53.478;10.182;2024-03-17T11:05:24;4.22;;;1.45;;
23743;SDS011;12052;53.478;10.182;2024-03-17T11:07:53;6.63;;;1.50;;
23743;SDS011;12052;53.478;10.182;2024-03-17T11:10:27;7.65;;;1.48;;
23743;SDS011;12052;53.478;10.182;2024-03-17T11:12:54;6.38;;;1.13;;
23743;SDS011;12052;53.478;10.182;2024-03-17T11:17:52;3.08;;;1.13;;
23743;SDS011;12052;53.478;10.182;2024-03-17T11:20:25;10.02;;;1.17;;
23743;SDS011;12052;53.478;10.182;2024-03-17T11:22:55;6.72;;;1.00;;
23743;SDS011;12052;53.478;10.182;2024-03-17T11:27:51;4.97;;;0.80;;
23743;SDS011;12052;53.478;10.182;2024-03-17T11:38:51;6.60;;;1.10;;
23743;SDS011;12052;53.478;10.182;2024-03-17T11:46:53;5.72;;;1.15;;
23743;SDS011;12052;53.478;10.182;2024-03-17T11:49:23;6.85;;;1.00;;
23743;SDS011;12052;53.478;10.182;2024-03-17T11:51:59;6.72;;;0.73;;
23743;SDS011;12052;53.478;10.182;2024-03-17T11:54:27;5.05;;;1.20;;
23743;SDS011;12052;53.478;10.182;2024-03-17T11:56:54;9.45;;;1.05;;
23743;SDS011;12052;53.478;10.182;2024-03-17T11:59:25;8.68;;;1.00;;
23743;SDS011;12052;53.478;10.182;2024-03-17T12:01:51;3.85;;;1.10;;
23743;SDS011;12052;53.478;10.182;2024-03-17T12:04:17;3.45;;;0.80;;
23743;SDS011;12052;53.478;10.182;2024-03-17T12:06:48;4.85;;;1.10;;
23743;SDS011;12052;53.478;10.182;2024-03-17T12:09:28;3.70;;;1.38;;
23743;SDS011;12052;53.478;10.182;2024-03-17T12:14:38;11.73;;;1.17;;
23743;SDS011;12052;53.478;10.182;2024-03-17T12:17:05;2.80;;;1.08;;
23743;SDS011;12052;53.478;10.182;2024-03-17T12:19:32;6.32;;;1.20;;
23743;SDS011;12052;53.478;10.182;2024-03-17T12:21:59;2.78;;;1.10;;
23743;SDS011;12052;53.478;10.182;2024-03-17T12:24:30;6.45;;;0.80;;
23743;SDS011;12052;53.478;10.182;2024-03-17T12:26:57;10.75;;;1.17;;
23743;SDS011;12052;53.478;10.182;2024-03-17T12:32:16;5.85;;;1.08;;
23743;SDS011;12052;53.478;10.182;2024-03-17T12:34:43;7.72;;;0.85;;
23743;SDS011;12052;53.478;10.182;2024-03-17T12:37:18;1.92;;;1.02;;
23743;SDS011;12052;53.478;10.182;2024-03-17T12:39:47;6.80;;;1.52;;
23743;SDS011;12052;53.478;10.182;2024-03-17T12:42:14;10.05;;;1.08;;
23743;SDS011;12052;53.478;10.182;2024-03-17T12:47:15;5.95;;;0.85;;
23743;SDS011;12052;53.478;10.182;2024-03-17T12:49:48;23.80;;;3.58;;
23743;SDS011;12052;53.478;10.182;2024-03-17T12:57:45;4.40;;;0.95;;
23743;SDS011;12052;53.478;10.182;2024-03-17T13:00:30;5.68;;;1.10;;
23743;SDS011;12052;53.478;10.182;2024-03-17T13:03:02;8.63;;;1.08;;
23743;SDS011;12052;53.478;10.182;2024-03-17T13:05:35;5.80;;;1.02;;
23743;SDS011;12052;53.478;10.182;2024-03-17T13:08:02;4.15;;;1.75;;
23743;SDS011;12052;53.478;10.182;2024-03-17T13:10:29;3.72;;;1.25;;
23743;SDS011;12052;53.478;10.182;2024-03-17T13:13:01;10.00;;;1.20;;
23743;SDS011;12052;53.478;10.182;2024-03-17T13:15:32;5.15;;;1.02;;
23743;SDS011;12052;53.478;10.182;2024-03-17T13:18:00;8.73;;;1.70;;
23743;SDS011;12052;53.478;10.182;2024-03-17T13:20:28;6.07;;;1.08;;
23743;SDS011;12052;53.478;10.182;2024-03-17T13:22:55;2.88;;;1.00;;
23743;SDS011;12052;53.478;10.182;2024-03-17T13:25:23;6.57;;;1.52;;
23743;SDS011;12052;53.478;10.182;2024-03-17T13:27:51;5.68;;;1.50;;
23743;SDS011;12052;53.478;10.182;2024-03-17T13:30:18;6.38;;;1.48;;
23743;SDS011;12052;53.478;10.182;2024-03-17T13:32:47;9.40;;;1.65;;
23743;SDS011;12052;53.478;10.182;2024-03-17T13:35:16;5.38;;;0.90;;
23743;SDS011;12052;53.478;10.182;2024-03-17T13:37:47;4.07;;;1.13;;
23743;SDS011;12052;53.478;10.182;2024-03-17T13:40:14;2.58;;;0.85;;
23743;SDS011;12052;53.478;10.182;2024-03-17T13:42:47;4.80;;;1.33;;
23743;SDS011;12052;53.478;10.182;2024-03-17T13:45:17;6.10;;;1.50;;
23743;SDS011;12052;53.478;10.182;2024-03-17T13:47:47;6.53;;;1.15;;
23743;SDS011;12052;53.478;10.182;2024-03-17T13:50:15;2.97;;;0.82;;
23743;SDS011;12052;53.478;10.182;2024-03-17T13:52:41;14.20;;;1.50;;
23743;SDS011;12052;53.478;10.182;2024-03-17T13:55:11;2.92;;;1.10;;
23743;SDS011;12052;53.478;10.182;2024-03-17T13:57:39;8.27;;;1.02;;
23743;SDS011;12052;53.478;10.182;2024-03-17T14:00:05;2.38;;;0.55;;
23743;SDS011;12052;53.478;10.182;2024-03-17T14:02:32;2.58;;;1.02;;
23743;SDS011;12052;53.478;10.182;2024-03-17T14:04:58;9.23;;;1.15;;
23743;SDS011;12052;53.478;10.182;2024-03-17T14:07:24;3.05;;;0.90;;
23743;SDS011;12052;53.478;10.182;2024-03-17T14:09:50;3.10;;;1.33;;
23743;SDS011;12052;53.478;10.182;2024-03-17T14:12:16;10.85;;;1.52;;
23743;SDS011;12052;53.478;10.182;2024-03-17T14:14:41;7.03;;;1.02;;
23743;SDS011;12052;53.478;10.182;2024-03-17T14:17:08;4.50;;;0.90;;
23743;SDS011;12052;53.478;10.182;2024-03-17T14:19:34;11.65;;;1.40;;
23743;SDS011;12052;53.478;10.182;2024-03-17T14:22:00;4.22;;;1.02;;
23743;SDS011;12052;53.478;10.182;2024-03-17T14:24:26;4.97;;;1.23;;
23743;SDS011;12052;53.478;10.182;2024-03-17T14:26:52;4.75;;;1.10;;
23743;SDS011;12052;53.478;10.182;2024-03-17T14:29:17;6.47;;;0.77;;
23743;SDS011;12052;53.478;10.182;2024-03-17T14:31:43;6.72;;;1.70;;
23743;SDS011;12052;53.478;10.182;2024-03-17T14:34:10;6.85;;;1.42;;
23743;SDS011;12052;53.478;10.182;2024-03-17T14:36:36;6.68;;;1.48;;
23743;SDS011;12052;53.478;10.182;2024-03-17T14:39:02;2.22;;;1.00;;
23743;SDS011;12052;53.478;10.182;2024-03-17T14:41:28;2.75;;;1.08;;
23743;SDS011;12052;53.478;10.182;2024-03-17T14:43:55;7.65;;;1.33;;
23743;SDS011;12052;53.478;10.182;2024-03-17T14:46:22;3.17;;;0.88;;
23743;SDS011;12052;53.478;10.182;2024-03-17T14:48:48;5.93;;;1.10;;
23743;SDS011;12052;53.478;10.182;2024-03-17T14:51:15;5.80;;;1.58;;
23743;SDS011;12052;53.478;10.182;2024-03-17T14:53:46;6.15;;;1.20;;
23743;SDS011;12052;53.478;10.182;2024-03-17T14:56:17;7.72;;;1.20;;
23743;SDS011;12052;53.478;10.182;2024-03-17T14:58:43;3.00;;;1.35;;
23743;SDS011;12052;53.478;10.182;2024-03-17T15:01:11;10.43;;;1.73;;
23743;SDS011;12052;53.478;10.182;2024-03-17T15:03:37;4.25;;;0.88;;
23743;SDS011;12052;53.478;10.182;2024-03-17T15:06:04;9.38;;;1.77;;
23743;SDS011;12052;53.478;10.182;2024-03-17T15:08:34;8.65;;;1.73;;
23743;SDS011;12052;53.478;10.182;2024-03-17T15:11:00;9.05;;;1.52;;
23743;SDS011;12052;53.478;10.182;2024-03-17T15:13:25;5.60;;;1.10;;